createdAt,value
2023-04-25T00:00:54.069Z,99972.22
2023-04-25T00:03:25.706Z,99971.72
2023-04-25T00:05:57.327Z,99977.16
2023-04-25T00:08:28.832Z,99974.72
2023-04-25T00:11:00.587Z,99972.28
2023-04-25T00:13:32.033Z,99969.50
2023-04-25T00:16:04.018Z,99975.66
2023-04-25T00:18:35.600Z,99965.28
2023-04-25T00:21:07.348Z,99972.22
2023-04-25T00:23:38.826Z,99964.47
2023-04-25T00:26:10.295Z,99972.66
2023-04-25T00:28:41.912Z,99970.38
2023-04-25T00:31:13.369Z,99971.13
2023-04-25T00:33:45.359Z,99966.63
2023-04-25T00:36:16.942Z,99968.88
2023-04-25T00:38:48.711Z,99962.94
2023-04-25T00:41:20.160Z,99962.47
2023-04-25T00:43:51.927Z,99958.13
2023-04-25T00:46:23.560Z,99959.38
2023-04-25T00:48:55.063Z,99966.53
2023-04-25T00:51:26.525Z,99962.94
2023-04-25T00:53:58.291Z,99972.28
2023-04-25T00:56:29.742Z,99960.78
2023-04-25T00:59:01.654Z,99968.47
2023-04-25T01:01:33.239Z,99969.19
2023-04-25T01:04:04.849Z,99966.31
2023-04-25T01:06:36.579Z,99957.16
2023-04-25T01:09:08.315Z,99953.94
2023-04-25T01:11:39.776Z,99953.47
2023-04-25T01:14:11.532Z,99943.88
2023-04-25T01:16:43.011Z,99943.75
2023-04-25T01:19:14.937Z,99949.88
2023-04-25T01:21:46.382Z,99948.97
2023-04-25T01:24:18.010Z,99940.13
2023-04-25T01:26:49.432Z,99945.53
2023-04-25T01:29:21.195Z,99955.91
2023-04-25T01:31:52.687Z,99944.19
2023-04-25T01:34:24.488Z,99939.63
2023-04-25T01:36:55.958Z,99950.31
2023-04-25T01:39:27.589Z,99950.91
2023-04-25T01:41:59.025Z,99951.88
2023-04-25T01:44:30.788Z,99947.88
2023-04-25T01:47:02.270Z,99951.09
2023-04-25T01:49:34.046Z,99940.13
2023-04-25T01:52:05.482Z,99945.97
2023-04-25T01:54:37.374Z,99948.31
2023-04-25T01:57:08.818Z,99945.28
2023-04-25T01:59:40.624Z,99947.94
2023-04-25T02:02:12.094Z,99946.09
2023-04-25T02:04:44.089Z,99951.34
2023-04-25T02:07:15.580Z,99944.03
2023-04-25T02:09:47.357Z,99949.34
2023-04-25T02:12:18.822Z,99944.84
2023-04-25T02:14:50.584Z,99955.31
2023-04-25T02:17:22.022Z,99956.28
2023-04-25T02:19:53.794Z,99952.72
2023-04-25T02:22:25.249Z,99954.22
2023-04-25T02:24:56.757Z,99956.81
2023-04-25T02:27:28.219Z,99947.00
2023-04-25T02:29:59.883Z,99953.13
2023-04-25T02:32:31.375Z,99946.78
2023-04-25T02:35:02.815Z,99943.44
2023-04-25T02:37:34.260Z,99942.50
2023-04-25T02:40:06.229Z,99948.16
2023-04-25T02:42:37.693Z,99945.22
2023-04-25T02:45:09.398Z,99947.88
2023-04-25T02:47:40.901Z,99948.38
2023-04-25T02:50:12.731Z,99943.53
2023-04-25T02:52:44.496Z,99945.69
2023-04-25T02:55:15.949Z,99939.69
2023-04-25T02:57:47.707Z,99940.50
2023-04-25T03:00:19.159Z,99947.44
2023-04-25T03:02:50.692Z,99947.94
2023-04-25T03:05:22.250Z,99945.59
2023-04-25T03:07:53.712Z,99945.81
2023-04-25T03:10:25.166Z,99946.03
2023-04-25T03:12:56.883Z,99941.53
2023-04-25T03:15:28.743Z,99945.44
2023-04-25T03:18:00.245Z,99945.97
2023-04-25T03:20:31.816Z,99940.66
2023-04-25T03:23:03.275Z,99941.47
2023-04-25T03:25:35.118Z,99939.75
2023-04-25T03:28:06.561Z,99944.13
2023-04-25T03:30:38.294Z,99937.69
2023-04-25T03:33:09.770Z,99943.44
2023-04-25T03:35:41.512Z,99947.13
2023-04-25T03:38:12.953Z,99947.13
2023-04-25T03:40:44.819Z,99949.72
2023-04-25T03:43:16.265Z,99943.75
2023-04-25T03:45:50.885Z,99944.03
2023-04-25T03:48:22.425Z,99944.63
2023-04-25T03:50:54.517Z,99951.34
2023-04-25T03:53:25.968Z,99951.94
2023-04-25T03:55:57.724Z,99951.72
2023-04-25T03:58:29.171Z,99953.34
2023-04-25T04:01:00.951Z,99960.03
2023-04-25T04:03:32.485Z,99961.88
2023-04-25T04:06:04.469Z,99968.38
2023-04-25T04:08:35.910Z,99964.47
2023-04-25T04:11:07.679Z,99968.00
2023-04-25T04:13:39.128Z,99973.16
2023-04-25T04:16:10.692Z,99972.78
2023-04-25T04:18:42.508Z,99987.69
2023-04-25T04:21:13.959Z,99968.38
2023-04-25T04:23:45.438Z,99979.34
2023-04-25T04:26:16.890Z,99981.94
2023-04-25T04:28:48.485Z,99980.91
2023-04-25T04:31:20.003Z,99977.38
2023-04-25T04:33:51.761Z,99982.59
2023-04-25T04:36:23.469Z,99975.66
2023-04-25T04:38:54.929Z,99982.09
2023-04-25T04:41:26.394Z,99983.56
2023-04-25T04:43:58.180Z,99989.03
2023-04-25T04:46:29.674Z,99990.66
2023-04-25T04:49:01.751Z,99990.53
2023-04-25T04:51:33.203Z,99995.66
2023-04-25T04:54:05.091Z,99998.13
2023-04-25T04:56:36.571Z,99989.94
2023-04-25T04:59:08.402Z,99991.94
2023-04-25T05:01:40.081Z,99991.69
2023-04-25T05:04:11.653Z,99991.34
2023-04-25T05:06:43.561Z,99997.75
2023-04-25T05:09:15.018Z,99991.25
2023-04-25T05:11:46.861Z,99995.16
2023-04-25T05:14:18.308Z,99999.97
2023-04-25T05:16:50.288Z,99993.47
2023-04-25T05:19:21.841Z,99997.06
2023-04-25T05:21:53.292Z,99999.59
2023-04-25T05:24:24.730Z,100010.88
2023-04-25T05:26:56.574Z,100003.81
2023-04-25T05:29:28.052Z,99997.38
2023-04-25T05:31:59.914Z,100002.56
2023-04-25T05:34:31.393Z,100010.97
2023-04-25T05:37:03.191Z,99996.78
2023-04-25T05:39:34.631Z,100007.13
2023-04-25T05:42:06.514Z,100011.63
2023-04-25T05:44:37.949Z,100011.53
2023-04-25T05:47:09.496Z,100006.53
2023-04-25T05:49:40.982Z,100013.25
2023-04-25T05:52:12.991Z,100016.41
2023-04-25T05:54:44.455Z,100013.56
2023-04-25T05:57:16.212Z,100011.38
2023-04-25T05:59:47.668Z,100019.88
2023-04-25T06:02:19.207Z,100025.72
2023-04-25T06:04:50.781Z,100028.06
2023-04-25T06:07:22.720Z,100032.19
2023-04-25T06:09:54.197Z,100036.38
2023-04-25T06:12:25.997Z,100026.63
2023-04-25T06:14:57.467Z,100039.97
2023-04-25T06:17:28.954Z,100038.09
2023-04-25T06:20:00.655Z,100034.53
2023-04-25T06:22:32.452Z,100044.69
2023-04-25T06:25:04.264Z,100044.34
2023-04-25T06:27:36.067Z,100039.47
2023-04-25T06:30:07.503Z,100038.81
2023-04-25T06:32:39.304Z,100037.91
2023-04-25T06:35:10.757Z,100040.63
2023-04-25T06:37:42.209Z,100039.69
2023-04-25T06:40:13.650Z,100044.19
2023-04-25T06:42:45.466Z,100042.75
2023-04-25T06:45:16.998Z,100047.38
2023-04-25T06:47:48.805Z,100045.88
2023-04-25T06:50:20.300Z,100051.31
2023-04-25T06:55:23.220Z,100049.47
2023-04-25T06:57:54.693Z,100045.97
2023-04-25T07:00:26.166Z,100046.16
2023-04-25T07:02:58.071Z,100046.66
2023-04-25T07:05:30.053Z,100052.13
2023-04-25T07:08:01.952Z,100044.91
2023-04-25T07:10:33.650Z,100056.13
2023-04-25T07:13:05.464Z,100054.91
2023-04-25T07:15:36.937Z,99587.13
2023-04-25T07:18:08.623Z,100062.03
2023-04-25T07:20:40.102Z,100057.44
2023-04-25T07:23:11.965Z,100076.81
2023-04-25T07:25:43.431Z,100078.66
2023-04-25T07:28:15.829Z,100080.56
2023-04-25T07:30:48.395Z,100072.78
2023-04-25T07:33:20.449Z,100079.28
2023-04-25T07:35:51.903Z,100085.50
2023-04-25T07:38:23.639Z,100091.19
2023-04-25T07:40:55.128Z,100092.06
2023-04-25T07:43:27.006Z,100092.09
2023-04-25T07:45:58.548Z,100106.59
2023-04-25T07:48:30.068Z,100101.34
2023-04-25T07:51:01.535Z,100111.44
2023-04-25T07:56:22.384Z,100107.34
2023-04-25T07:58:54.264Z,100112.13
2023-04-25T08:01:25.899Z,100121.53
2023-04-25T08:03:57.683Z,100118.63
2023-04-25T08:06:29.511Z,100117.66
2023-04-25T08:09:01.130Z,100121.59
2023-04-25T08:11:32.578Z,100127.53
2023-04-25T08:14:04.247Z,100127.56
2023-04-25T08:16:35.721Z,100124.56
2023-04-25T08:19:07.670Z,100131.84
2023-04-25T08:21:39.207Z,100135.22
2023-04-25T08:24:11.070Z,100139.66
2023-04-25T08:26:42.540Z,100138.47
2023-04-25T08:29:14.297Z,100141.06
2023-04-25T08:31:45.878Z,100146.28
2023-04-25T08:34:17.708Z,100150.13
2023-04-25T08:36:49.305Z,100154.38
2023-04-25T08:39:21.125Z,100153.88
2023-04-25T08:41:52.681Z,100159.47
2023-04-25T08:44:24.358Z,100169.59
2023-04-25T08:46:55.829Z,100162.56
2023-04-25T08:49:27.719Z,100174.84
2023-04-25T08:51:59.199Z,100168.59
2023-04-25T08:54:35.635Z,100172.06
2023-04-25T08:57:07.940Z,100177.06
2023-04-25T08:59:39.762Z,100191.69
2023-04-25T09:02:11.247Z,100185.41
2023-04-25T09:04:42.791Z,100190.72
2023-04-25T09:07:14.233Z,100196.47
2023-04-25T09:09:46.004Z,100189.06
2023-04-25T09:12:17.456Z,100181.59
2023-04-25T09:14:49.294Z,100193.78
2023-04-25T09:17:20.760Z,100203.25
2023-04-25T09:19:52.269Z,100196.41
2023-04-25T09:22:23.783Z,100198.25
2023-04-25T09:24:55.315Z,100200.19
2023-04-25T09:27:26.856Z,100199.47
2023-04-25T09:29:58.878Z,100212.97
2023-04-25T09:32:30.557Z,100211.81
2023-04-25T09:35:02.341Z,100207.88
2023-04-25T09:37:33.851Z,100217.53
2023-04-25T09:40:05.574Z,100207.97
2023-04-25T09:42:37.571Z,100211.19
2023-04-25T09:45:09.254Z,100220.19
2023-04-25T09:47:40.834Z,100218.25
2023-04-25T09:50:13.447Z,100219.69
2023-04-25T09:52:44.893Z,100222.88
2023-04-25T09:55:16.390Z,100213.50
2023-04-25T09:57:47.841Z,100220.72
2023-04-25T10:00:19.709Z,100226.47
2023-04-25T10:02:51.214Z,100224.88
2023-04-25T10:05:22.910Z,100224.16
2023-04-25T10:07:54.386Z,100222.50
2023-04-25T10:10:26.247Z,100225.91
2023-04-25T10:12:57.701Z,100226.22
2023-04-25T10:15:29.503Z,100232.31
2023-04-25T10:18:01.014Z,100233.19
2023-04-25T10:20:32.890Z,100235.44
2023-04-25T10:23:04.326Z,100235.75
2023-04-25T10:25:36.068Z,100244.19
2023-04-25T10:28:07.624Z,100254.81
2023-04-25T10:30:39.341Z,100253.81
2023-04-25T10:33:10.866Z,100248.25
2023-04-25T10:35:42.342Z,100240.38
2023-04-25T10:38:13.847Z,100240.97
2023-04-25T10:40:45.304Z,100239.78
2023-04-25T10:43:16.757Z,100239.28
2023-04-25T10:45:48.270Z,100239.81
2023-04-25T10:48:19.731Z,100255.94
2023-04-25T10:50:51.254Z,100251.97
2023-04-25T10:53:22.724Z,100255.31
2023-04-25T10:55:54.188Z,100263.34
2023-04-25T10:58:25.635Z,100262.31
2023-04-25T11:00:57.884Z,100268.09
2023-04-25T11:03:29.561Z,100260.66
2023-04-25T11:06:02.288Z,100264.06
2023-04-25T11:08:33.744Z,100269.00
2023-04-25T11:11:05.635Z,100271.19
2023-04-25T11:13:37.138Z,100273.53
2023-04-25T11:16:13.215Z,100271.75
2023-04-25T11:18:44.981Z,100271.81
2023-04-25T11:21:16.694Z,100283.34
2023-04-25T11:23:48.486Z,100277.25
2023-04-25T11:26:20.336Z,100283.88
2023-04-25T11:28:51.875Z,100281.13
2023-04-25T11:31:24.057Z,100291.97
2023-04-25T11:33:55.615Z,100308.50
2023-04-25T11:36:27.559Z,100303.97
2023-04-25T11:38:59.329Z,100295.03
2023-04-25T11:41:30.770Z,100307.53
2023-04-25T11:44:02.569Z,100318.25
2023-04-25T11:46:34.102Z,100326.94
2023-04-25T11:49:06.006Z,100320.19
2023-04-25T11:51:37.475Z,100323.69
2023-04-25T11:54:09.256Z,100319.03
2023-04-25T11:56:40.708Z,100332.69
2023-04-25T11:59:12.968Z,100328.19
2023-04-25T12:01:44.792Z,100335.41
2023-04-25T12:04:16.829Z,100329.38
2023-04-25T12:06:48.736Z,100323.84
2023-04-25T12:09:20.619Z,100335.16
2023-04-25T12:11:52.073Z,100322.56
2023-04-25T12:14:23.940Z,100330.72
2023-04-25T12:16:55.444Z,100323.03
2023-04-25T12:19:27.206Z,100330.22
2023-04-25T12:22:00.560Z,100330.06
2023-04-25T12:24:32.357Z,100341.06
2023-04-25T12:27:03.908Z,100326.16
2023-04-25T12:29:48.564Z,100336.44
2023-04-25T12:32:21.118Z,100335.00
2023-04-25T12:34:52.666Z,100338.84
2023-04-25T12:37:24.152Z,100333.31
2023-04-25T12:39:55.613Z,100334.88
2023-04-25T12:42:27.063Z,100336.16
2023-04-25T12:44:59.171Z,100330.53
2023-04-25T12:47:30.688Z,100332.63
2023-04-25T12:50:02.474Z,100341.50
2023-04-25T12:52:33.949Z,100341.03
2023-04-25T12:55:05.797Z,100339.53
2023-04-25T12:57:37.293Z,100348.84
2023-04-25T13:00:09.236Z,100344.34
2023-04-25T13:02:40.888Z,100363.50
2023-04-25T13:05:12.727Z,100349.72
2023-04-25T13:07:44.333Z,100350.97
2023-04-25T13:10:16.148Z,100353.28
2023-04-25T13:12:47.639Z,100356.13
2023-04-25T13:15:19.113Z,100356.09
2023-04-25T13:17:50.768Z,100366.34
2023-04-25T13:20:22.596Z,100349.78
2023-04-25T13:22:54.074Z,100351.91
2023-04-25T13:25:25.562Z,100360.69
2023-04-25T13:27:57.033Z,100360.28
2023-04-25T13:30:28.854Z,100357.28
2023-04-25T13:33:00.362Z,100361.56
2023-04-25T13:35:32.193Z,100358.25
2023-04-25T13:38:03.662Z,100364.44
2023-04-25T13:40:35.500Z,100365.03
2023-04-25T13:43:06.933Z,100361.88
2023-04-25T13:45:38.783Z,100367.75
2023-04-25T13:48:10.264Z,100362.63
2023-04-25T13:50:42.000Z,100351.16
2023-04-25T13:53:13.468Z,100362.56
2023-04-25T13:55:45.289Z,100362.84
2023-04-25T13:58:16.785Z,100365.50
2023-04-25T14:00:48.516Z,100363.25
2023-04-25T14:03:20.064Z,100378.31
2023-04-25T14:05:51.668Z,100368.31
2023-04-25T14:08:23.134Z,100374.97
2023-04-25T14:10:54.634Z,100380.53
2023-04-25T14:13:26.138Z,100383.19
2023-04-25T14:15:58.017Z,100386.94
2023-04-25T14:18:29.503Z,100390.13
2023-04-25T14:21:01.323Z,100402.38
2023-04-25T14:23:32.777Z,100404.78
2023-04-25T14:26:04.697Z,100406.06
2023-04-25T14:28:36.195Z,100407.59
2023-04-25T14:31:08.036Z,100414.75
2023-04-25T14:33:39.504Z,100414.41
2023-04-25T14:36:11.377Z,100411.75
2023-04-25T14:38:42.932Z,100414.06
2023-04-25T14:41:14.623Z,100406.94
2023-04-25T14:43:46.191Z,100409.09
2023-04-25T14:46:17.947Z,100414.03
2023-04-25T14:48:49.506Z,100421.59
2023-04-25T14:51:21.388Z,100424.66
2023-04-25T14:53:53.001Z,100419.13
2023-04-25T14:56:24.884Z,100411.31
2023-04-25T14:58:56.370Z,100418.44
2023-04-25T15:01:28.101Z,100428.19
2023-04-25T15:03:59.981Z,100423.53
2023-04-25T15:06:31.827Z,100422.75
2023-04-25T15:09:03.309Z,100427.19
2023-04-25T15:11:35.133Z,100430.44
2023-04-25T15:14:06.697Z,100431.94
2023-04-25T15:16:38.519Z,100434.16
2023-04-25T15:19:09.993Z,100433.22
2023-04-25T15:21:41.814Z,100428.66
2023-04-25T15:24:13.278Z,100424.19
2023-04-25T15:26:45.058Z,100428.09
2023-04-25T15:29:16.521Z,100425.91
2023-04-25T15:31:48.434Z,100422.88
2023-04-25T15:34:20.226Z,100436.13
2023-04-25T15:36:51.677Z,100423.69
2023-04-25T15:39:23.433Z,100430.56
2023-04-25T15:41:54.900Z,100441.00
2023-04-25T15:44:26.406Z,100436.59
2023-04-25T15:46:57.889Z,100438.72
2023-04-25T15:49:29.741Z,100439.50
2023-04-25T15:52:01.204Z,100435.91
2023-04-25T15:54:32.711Z,100424.88
2023-04-25T15:57:04.163Z,100428.34
2023-04-25T15:59:35.667Z,100433.41
2023-04-25T16:02:07.164Z,100435.28
2023-04-25T16:04:38.884Z,100439.06
2023-04-25T16:07:10.407Z,100446.06
2023-04-25T16:09:42.188Z,100433.91
2023-04-25T16:12:13.699Z,100433.41
2023-04-25T16:14:45.457Z,100443.13
2023-04-25T16:17:16.942Z,100449.69
2023-04-25T16:19:48.801Z,100451.41
2023-04-25T16:22:20.250Z,100449.63
2023-04-25T16:24:51.715Z,100446.16
2023-04-25T16:27:23.165Z,100449.72
2023-04-25T16:29:54.665Z,100445.09
2023-04-25T16:32:26.173Z,100450.09
2023-04-25T16:34:59.004Z,100454.28
2023-04-25T16:37:30.659Z,100453.56
2023-04-25T16:40:02.158Z,100468.22
2023-04-25T16:42:33.645Z,100464.66
2023-04-25T16:45:05.496Z,100466.56
2023-04-25T16:47:37.053Z,100467.63
2023-04-25T16:50:08.737Z,100469.28
2023-04-25T16:52:40.539Z,100467.59
2023-04-25T16:55:12.397Z,100465.16
2023-04-25T16:57:43.891Z,100463.41
2023-04-25T17:00:15.430Z,100466.72
2023-04-25T17:02:47.279Z,100466.88
2023-04-25T17:05:19.077Z,100461.28
2023-04-25T17:07:50.531Z,100469.38
2023-04-25T17:10:22.371Z,100474.69
2023-04-25T17:12:53.855Z,100474.41
2023-04-25T17:15:25.489Z,100474.22
2023-04-25T17:17:57.295Z,100480.03
2023-04-25T17:20:29.037Z,100479.00
2023-04-25T17:23:00.557Z,100480.41
2023-04-25T17:25:32.070Z,100475.75
2023-04-25T17:28:03.635Z,100489.66
2023-04-25T17:30:35.601Z,100489.69
2023-04-25T17:33:07.300Z,100492.84
2023-04-25T17:35:38.900Z,100484.47
2023-04-25T17:38:10.465Z,100493.47
2023-04-25T17:40:42.268Z,100487.28
2023-04-25T17:43:13.769Z,100495.69
2023-04-25T17:45:45.334Z,100492.00
2023-04-25T17:48:16.822Z,100494.53
2023-04-25T17:50:48.459Z,100500.09
2023-04-25T17:53:20.024Z,100499.72
2023-04-25T17:55:51.539Z,100493.66
2023-04-25T17:58:23.020Z,100495.53
2023-04-25T18:00:54.549Z,100499.91
2023-04-25T18:03:26.183Z,100504.16
2023-04-25T18:05:57.794Z,100500.13
2023-04-25T18:08:29.289Z,100505.44
2023-04-25T18:11:01.049Z,100515.06
2023-04-25T18:13:32.718Z,100507.72
2023-04-25T18:16:04.308Z,100514.03
2023-04-25T18:18:36.180Z,100518.75
2023-04-25T18:21:08.278Z,100518.53
2023-04-25T18:23:39.738Z,100527.88
2023-04-25T18:26:11.199Z,100525.44
2023-04-25T18:28:43.006Z,100533.81
2023-04-25T18:31:14.505Z,100532.75
2023-04-25T18:33:49.437Z,100540.31
2023-04-25T18:36:21.070Z,100539.31
2023-04-25T18:38:55.203Z,100534.44
2023-04-25T18:44:06.132Z,100547.31
2023-04-25T18:46:37.614Z,100542.00
2023-04-25T18:49:09.442Z,100548.53
2023-04-25T18:51:41.018Z,100554.09
2023-04-25T18:54:12.699Z,100549.97
2023-04-25T18:56:44.208Z,100563.06
2023-04-25T18:59:15.708Z,100563.06
2023-04-25T19:01:47.277Z,100564.88
2023-04-25T19:04:19.168Z,100566.31
2023-04-25T19:06:50.748Z,100573.88
2023-04-25T19:09:22.638Z,100582.28
2023-04-25T19:11:54.162Z,100583.91
2023-04-25T19:14:25.775Z,100583.91
2023-04-25T19:16:57.297Z,100582.91
2023-04-25T19:19:28.811Z,100584.53
2023-04-25T19:22:00.329Z,100570.06
2023-04-25T19:24:33.918Z,100595.19
2023-04-25T19:27:06.141Z,100593.34
2023-04-25T19:29:37.971Z,100602.13
2023-04-25T19:32:09.422Z,100590.06
2023-04-25T19:34:41.221Z,100589.66
2023-04-25T19:37:12.752Z,100601.69
2023-04-25T19:39:44.515Z,100597.63
2023-04-25T19:42:15.999Z,100602.31
2023-04-25T19:44:47.557Z,100604.16
2023-04-25T19:47:19.145Z,100606.81
2023-04-25T19:49:50.705Z,100604.72
2023-04-25T19:52:22.171Z,100608.81
2023-04-25T19:54:53.639Z,100605.13
2023-04-25T19:57:25.122Z,100609.81
2023-04-25T19:59:56.606Z,100613.47
2023-04-25T20:02:28.165Z,100611.84
2023-04-25T20:05:00.090Z,100610.41
2023-04-25T20:07:31.594Z,100616.09
2023-04-25T20:10:03.094Z,100615.91
2023-04-25T20:12:34.543Z,100615.28
2023-04-25T20:15:06.308Z,100617.09
2023-04-25T20:17:37.847Z,100619.13
2023-04-25T20:20:09.421Z,100611.56
2023-04-25T20:22:40.927Z,100619.28
2023-04-25T20:25:12.766Z,100624.16
2023-04-25T20:27:44.266Z,100351.41
2023-04-25T20:30:15.770Z,100625.38
2023-04-25T20:32:47.273Z,100619.00
2023-04-25T20:35:19.061Z,100626.94
2023-04-25T20:37:50.522Z,100625.06
2023-04-25T20:40:22.158Z,100616.66
2023-04-25T20:42:53.600Z,100622.78
2023-04-25T20:45:25.408Z,100625.63
2023-04-25T20:47:56.960Z,100630.06
2023-04-25T20:50:28.776Z,100629.44
2023-04-25T20:53:00.249Z,100635.75
2023-04-25T20:55:32.354Z,100640.84
2023-04-25T20:58:03.834Z,100636.00
2023-04-25T21:00:35.813Z,100644.13
2023-04-25T21:03:07.905Z,100639.09
2023-04-25T21:05:39.505Z,100633.78
2023-04-25T21:08:10.971Z,100634.41
2023-04-25T21:10:42.467Z,100638.31
2023-04-25T21:13:14.415Z,100640.13
2023-04-25T21:15:45.908Z,100640.09
2023-04-25T21:18:17.878Z,100645.63
2023-04-25T21:20:49.374Z,100637.69
2023-04-25T21:23:21.167Z,100646.66
2023-04-25T21:25:52.606Z,100652.53
2023-04-25T21:28:24.276Z,100650.69
2023-04-25T21:30:55.777Z,100651.53
2023-04-25T21:33:27.592Z,100657.19
2023-04-25T21:35:59.053Z,100662.66
2023-04-25T21:38:30.524Z,100661.00
2023-04-25T21:41:01.991Z,100657.50
2023-04-25T21:43:33.723Z,100670.72
2023-04-25T21:48:39.794Z,100666.56
2023-04-25T21:51:11.240Z,100662.66
2023-04-25T21:53:43.116Z,100672.38
2023-04-25T21:56:14.569Z,100677.69
2023-04-25T21:58:46.367Z,100675.19
2023-04-25T22:01:17.897Z,100668.63
2023-04-25T22:03:49.670Z,100671.13
2023-04-25T22:06:21.314Z,100680.06
2023-04-25T22:08:53.078Z,100680.69
2023-04-25T22:11:24.786Z,100686.38
2023-04-25T22:13:56.258Z,100684.28
2023-04-25T22:16:27.917Z,100696.06
2023-04-25T22:18:59.798Z,100693.19
2023-04-25T22:21:32.078Z,100702.31
2023-04-25T22:24:03.554Z,100696.59
2023-04-25T22:26:34.999Z,100705.28
2023-04-25T22:29:07.721Z,100702.63
2023-04-25T22:31:39.618Z,100697.34
2023-04-25T22:34:11.787Z,100705.81
2023-04-25T22:36:43.535Z,100708.63
2023-04-25T22:39:15.389Z,100714.31
2023-04-25T22:41:47.017Z,100708.38
2023-04-25T22:44:19.618Z,100717.13
2023-04-25T22:46:51.245Z,100720.34
2023-04-25T22:49:23.009Z,100719.06
2023-04-25T22:51:54.486Z,100728.19
2023-04-25T22:54:25.986Z,100729.41
2023-04-25T22:56:57.680Z,100733.03
2023-04-25T22:59:29.924Z,100728.94
2023-04-25T23:02:01.436Z,100727.59
2023-04-25T23:04:33.757Z,100735.53
2023-04-25T23:07:06.124Z,100732.41
2023-04-25T23:09:38.302Z,100729.31
2023-04-25T23:12:10.077Z,100720.38
2023-04-25T23:14:42.182Z,100726.41
2023-04-25T23:17:13.770Z,100729.06
2023-04-25T23:19:45.555Z,100730.69
2023-04-25T23:22:16.991Z,100740.19
2023-04-25T23:24:49.251Z,100732.81
2023-04-25T23:27:20.716Z,100736.63
2023-04-25T23:29:52.359Z,100745.56
2023-04-25T23:32:24.074Z,100744.91
2023-04-25T23:34:55.646Z,100740.19
2023-04-25T23:37:27.419Z,100741.38
2023-04-25T23:39:59.882Z,100739.91
2023-04-25T23:42:31.341Z,100744.56
2023-04-25T23:45:03.941Z,100740.97
2023-04-25T23:47:35.516Z,100754.56
2023-04-25T23:50:07.241Z,100749.28
2023-04-25T23:52:38.752Z,100757.09
2023-04-25T23:55:10.527Z,100760.00
2023-04-25T23:57:41.976Z,100763.66
